Time;durP1;ratioP1;P1;durP2;ratioP2;P2;SDS_P1;SDS_P2;PMS_P1;PMS_P2;Temp;Humidity;BMP_temperature;BMP_pressure;BME280_temperature;BME280_humidity;BME280_pressure;Samples;Min_cycle;Max_cycle;Signal;HPM_P1;HPM_P2
2021/12/15 00:00:21;;;;;;;13.00;10.60;;;9.00;97.70;;;;;;945791;151;27890;-75
2021/12/15 00:02:50;;;;;;;11.17;9.80;;;9.00;97.70;;;;;;943373;151;27241;-75
2021/12/15 00:05:21;;;;;;;11.73;9.93;;;8.90;97.50;;;;;;946546;148;27246;-75
2021/12/15 00:07:41;;;;;;;13.20;10.13;;;8.80;97.50;;;;;;944617;149;27314;-75
2021/12/15 00:10:07;;;;;;;12.17;9.40;;;8.70;97.50;;;;;;947744;150;27274;-75
2021/12/15 00:12:34;;;;;;;12.67;9.47;;;8.60;97.50;;;;;;948561;149;27431;-75
2021/12/15 00:15:01;;;;;;;10.43;9.30;;;8.60;97.60;;;;;;944922;150;27299;-75
2021/12/15 00:17:27;;;;;;;12.27;9.63;;;8.50;97.70;;;;;;940494;151;27950;-75
2021/12/15 00:19:54;;;;;;;10.47;9.30;;;8.40;97.80;;;;;;944567;148;27400;-75
2021/12/15 00:22:20;;;;;;;12.30;9.80;;;8.30;97.90;;;;;;940927;151;27393;-74
2021/12/15 00:24:47;;;;;;;12.10;10.17;;;8.20;97.90;;;;;;948403;150;27303;-75
2021/12/15 00:27:13;;;;;;;11.53;9.63;;;8.20;98.20;;;;;;937955;149;27352;-75
2021/12/15 00:29:40;;;;;;;13.60;10.10;;;8.10;98.30;;;;;;950187;148;27315;-75
2021/12/15 00:32:07;;;;;;;16.93;10.70;;;8.10;98.50;;;;;;948496;150;27361;-74
2021/12/15 00:34:34;;;;;;;28.47;12.83;;;8.00;98.70;;;;;;947336;151;27295;-74
2021/12/15 00:37:00;;;;;;;47.87;14.47;;;8.00;99.00;;;;;;944789;148;27318;-74
2021/12/15 00:39:28;;;;;;;38.03;12.87;;;7.90;99.30;;;;;;946673;148;27359;-75
2021/12/15 00:41:53;;;;;;;68.57;15.00;;;7.90;99.50;;;;;;948832;148;27477;-74
2021/12/15 00:44:20;;;;;;;33.80;11.57;;;7.90;99.70;;;;;;949679;148;27390;-74
2021/12/15 00:46:50;;;;;;;39.33;12.03;;;7.90;99.90;;;;;;950264;148;27291;-74
2021/12/15 00:49:13;;;;;;;41.00;11.67;;;8.00;99.90;;;;;;942519;150;27822;-75
2021/12/15 00:51:39;;;;;;;46.03;11.90;;;8.00;99.90;;;;;;949277;148;27286;-74
2021/12/15 00:54:09;;;;;;;37.20;12.37;;;8.00;99.90;;;;;;946367;150;27886;-75
2021/12/15 00:56:35;;;;;;;46.27;10.90;;;8.10;99.90;;;;;;942567;151;27289;-75
2021/12/15 00:59:05;;;;;;;31.93;10.17;;;8.10;99.90;;;;;;947609;151;27261;-75
2021/12/15 01:01:31;;;;;;;31.63;11.13;;;8.20;99.90;;;;;;946033;151;27250;-75
2021/12/15 01:03:58;;;;;;;36.70;11.50;;;8.20;99.90;;;;;;941688;150;27246;-75
2021/12/15 01:06:24;;;;;;;22.00;10.10;;;8.20;99.90;;;;;;944606;151;27274;-75
2021/12/15 01:08:54;;;;;;;25.40;10.63;;;8.30;99.90;;;;;;946727;150;27260;-75
2021/12/15 01:11:25;;;;;;;40.53;11.50;;;8.30;99.90;;;;;;945260;151;27295;-75
2021/12/15 01:21:58;;;;;;;16.33;9.63;;;8.50;99.90;;;;;;954052;147;27310;-75
2021/12/15 01:24:24;;;;;;;11.33;9.27;;;8.50;99.90;;;;;;956822;150;27333;-75
2021/12/15 01:26:51;;;;;;;11.33;8.43;;;8.50;99.90;;;;;;951598;150;27261;-75
2021/12/15 01:29:18;;;;;;;11.47;9.13;;;8.50;99.90;;;;;;942853;150;27315;-74
2021/12/15 01:31:44;;;;;;;10.13;8.63;;;8.50;99.90;;;;;;938115;152;27443;-74
2021/12/15 01:34:11;;;;;;;10.40;9.30;;;8.60;99.90;;;;;;952853;147;27340;-74
2021/12/15 01:36:37;;;;;;;10.13;9.00;;;8.60;99.90;;;;;;946136;151;27297;-74
2021/12/15 01:39:04;;;;;;;9.80;8.80;;;8.70;99.90;;;;;;954468;148;27313;-74
2021/12/15 01:41:30;;;;;;;12.00;9.23;;;8.70;99.90;;;;;;954072;147;27303;-75
2021/12/15 01:49:32;;;;;;;10.83;8.07;;;8.80;99.90;;;;;;924045;151;27454;-75
2021/12/15 01:51:58;;;;;;;8.70;7.67;;;8.80;99.90;;;;;;943504;151;27312;-75
2021/12/15 01:54:25;;;;;;;9.17;7.60;;;8.80;99.90;;;;;;944012;147;27376;-74
2021/12/15 01:56:51;;;;;;;9.70;8.40;;;8.80;99.90;;;;;;960865;145;27512;-75
2021/12/15 01:59:18;;;;;;;11.07;8.80;;;8.80;99.90;;;;;;944554;148;27351;-75
2021/12/15 02:01:44;;;;;;;11.37;9.03;;;8.90;99.90;;;;;;956196;147;27279;-75
2021/12/15 02:04:11;;;;;;;9.67;8.23;;;8.90;99.90;;;;;;947213;151;27745;-75
2021/12/15 02:06:41;;;;;;;9.63;8.43;;;8.90;99.90;;;;;;950001;151;27271;-75
2021/12/15 02:09:04;;;;;;;9.30;8.20;;;8.90;99.90;;;;;;949227;149;27288;-74
2021/12/15 02:11:31;;;;;;;10.17;8.53;;;9.00;99.90;;;;;;949146;149;27321;-75
2021/12/15 02:13:57;;;;;;;9.97;8.87;;;9.00;99.90;;;;;;948383;147;27267;-74
2021/12/15 02:16:24;;;;;;;10.83;9.03;;;9.00;99.90;;;;;;945455;151;27274;-75
2021/12/15 02:18:53;;;;;;;9.77;8.77;;;9.00;99.90;;;;;;947381;151;27409;-75
2021/12/15 02:21:20;;;;;;;10.80;8.93;;;9.00;99.90;;;;;;944055;148;27430;-75
2021/12/15 02:23:49;;;;;;;9.77;8.10;;;9.10;99.90;;;;;;948597;148;27294;-75
2021/12/15 02:26:14;;;;;;;10.40;8.90;;;9.10;99.80;;;;;;949780;148;27323;-75
2021/12/15 02:28:40;;;;;;;9.47;8.53;;;9.10;99.80;;;;;;949840;148;27408;-75
2021/12/15 02:31:18;;;;;;;9.87;8.50;;;9.10;99.80;;;;;;951417;148;27329;-75
2021/12/15 02:33:52;;;;;;;10.47;9.27;;;9.10;99.80;;;;;;947348;148;27357;-75
2021/12/15 02:38:52;;;;;;;9.30;8.20;;;9.10;99.90;;;;;;949147;151;27368;-75
2021/12/15 02:41:23;;;;;;;9.37;8.37;;;9.20;99.80;;;;;;953628;148;27322;-75
2021/12/15 02:43:48;;;;;;;9.97;8.70;;;9.20;99.80;;;;;;950032;151;27274;-75
2021/12/15 02:46:15;;;;;;;12.57;9.00;;;9.20;99.80;;;;;;956298;148;27313;-75
2021/12/15 02:48:45;;;;;;;11.83;9.53;;;9.20;99.70;;;;;;956371;148;27268;-75
2021/12/15 02:51:14;;;;;;;10.70;8.60;;;9.20;99.70;;;;;;949525;148;27931;-75
2021/12/15 02:53:40;;;;;;;9.67;8.47;;;9.20;99.60;;;;;;949563;148;27468;-75
2021/12/15 02:56:07;;;;;;;9.83;8.53;;;9.20;99.50;;;;;;949322;149;27385;-74
2021/12/15 02:58:36;;;;;;;10.27;8.40;;;9.20;99.40;;;;;;949014;151;27365;-75
2021/12/15 03:01:10;;;;;;;11.10;8.97;;;9.20;99.40;;;;;;949068;148;27415;-74
2021/12/15 03:06:21;;;;;;;11.07;9.37;;;9.20;99.20;;;;;;949891;148;27422;-75
2021/12/15 03:16:43;;;;;;;9.27;8.20;;;9.10;99.20;;;;;;943438;150;27382;-75
2021/12/15 03:19:09;;;;;;;10.03;8.47;;;9.10;99.20;;;;;;945826;150;27308;-75
2021/12/15 03:21:36;;;;;;;9.80;8.63;;;9.10;99.20;;;;;;950380;148;27344;-75
2021/12/15 03:24:07;;;;;;;11.87;9.43;;;9.10;99.20;;;;;;956283;148;27278;-75
2021/12/15 03:26:35;;;;;;;10.23;8.77;;;9.10;99.20;;;;;;951336;148;27310;-75
2021/12/15 03:35:04;;;;;;;9.77;8.53;;;9.10;99.30;;;;;;949129;148;27531;-75
2021/12/15 03:37:28;;;;;;;9.97;8.70;;;9.10;99.30;;;;;;943966;148;27385;-76
2021/12/15 03:39:58;;;;;;;8.87;7.93;;;9.10;99.40;;;;;;939817;150;27313;-76
2021/12/15 03:42:31;;;;;;;11.80;9.33;;;9.10;99.30;;;;;;945087;151;27372;-76
2021/12/15 03:44:57;;;;;;;10.30;8.77;;;9.10;99.30;;;;;;927191;151;27320;-79
2021/12/15 03:47:23;;;;;;;9.07;7.77;;;9.10;99.30;;;;;;947897;148;27426;-75
2021/12/15 03:49:50;;;;;;;10.93;9.07;;;9.10;99.30;;;;;;931374;151;27362;-78
2021/12/15 03:52:16;;;;;;;10.40;8.47;;;9.00;99.20;;;;;;949627;148;27950;-72
2021/12/15 03:54:43;;;;;;;8.87;7.83;;;9.00;99.20;;;;;;949052;149;27646;-72
2021/12/15 03:57:09;;;;;;;9.63;8.63;;;9.10;99.20;;;;;;959887;149;27412;-72
2021/12/15 03:59:41;;;;;;;10.33;9.23;;;9.10;99.20;;;;;;960988;149;27388;-72
2021/12/15 04:02:02;;;;;;;10.47;8.57;;;9.10;99.20;;;;;;961018;149;27384;-72
2021/12/15 04:04:29;;;;;;;10.67;8.83;;;9.00;99.20;;;;;;944219;149;27462;-72
2021/12/15 04:06:56;;;;;;;10.27;8.37;;;9.10;99.20;;;;;;965424;147;27678;-73
2021/12/15 04:09:22;;;;;;;10.60;8.50;;;9.10;99.20;;;;;;969081;146;27239;-72
2021/12/15 04:11:49;;;;;;;10.27;8.20;;;9.10;99.30;;;;;;963890;147;27273;-72
2021/12/15 04:14:20;;;;;;;9.07;7.90;;;9.10;99.20;;;;;;972076;147;27222;-72
2021/12/15 04:16:45;;;;;;;10.80;9.10;;;9.10;99.20;;;;;;953562;149;27292;-72
2021/12/15 04:19:09;;;;;;;11.30;8.70;;;9.10;99.20;;;;;;956294;149;27304;-72
2021/12/15 04:21:35;;;;;;;8.30;7.50;;;9.10;99.10;;;;;;958981;147;27323;-72
2021/12/15 04:24:02;;;;;;;9.53;8.17;;;9.10;99.20;;;;;;956276;148;27469;-72
2021/12/15 04:26:28;;;;;;;10.57;8.10;;;9.10;99.10;;;;;;960293;149;27230;-71
2021/12/15 04:28:55;;;;;;;10.00;8.17;;;9.10;99.50;;;;;;960938;147;27323;-71
2021/12/15 04:31:21;;;;;;;10.07;8.30;;;9.10;99.20;;;;;;967027;146;27823;-71
2021/12/15 04:33:54;;;;;;;9.40;8.20;;;9.10;99.20;;;;;;976042;146;27266;-71
2021/12/15 04:36:17;;;;;;;9.13;8.00;;;9.10;99.20;;;;;;973857;146;27277;-72
2021/12/15 04:38:44;;;;;;;10.37;8.13;;;9.10;99.20;;;;;;974789;146;27303;-72
2021/12/15 04:41:10;;;;;;;8.57;7.67;;;9.10;99.20;;;;;;976372;146;27301;-73
2021/12/15 04:43:40;;;;;;;10.40;8.23;;;9.10;99.20;;;;;;974543;146;27317;-72
2021/12/15 04:46:04;;;;;;;9.37;7.80;;;9.10;99.20;;;;;;970652;144;27306;-72
2021/12/15 04:48:30;;;;;;;9.50;7.97;;;9.10;99.20;;;;;;976829;146;27246;-72
2021/12/15 04:50:57;;;;;;;10.57;8.83;;;9.10;99.20;;;;;;979573;146;27365;-72
2021/12/15 04:53:23;;;;;;;9.30;8.37;;;9.10;99.20;;;;;;971189;146;27285;-72
2021/12/15 04:55:50;;;;;;;10.13;8.53;;;9.10;99.20;;;;;;976578;146;27289;-72
2021/12/15 04:58:17;;;;;;;9.53;7.77;;;9.10;99.30;;;;;;977162;146;27221;-72
2021/12/15 05:00:52;;;;;;;9.37;8.33;;;9.10;99.30;;;;;;976329;146;27411;-72
2021/12/15 05:03:18;;;;;;;9.47;7.73;;;9.10;99.30;;;;;;972550;143;27299;-71
2021/12/15 05:05:45;;;;;;;10.23;8.30;;;9.10;99.30;;;;;;976989;146;27257;-71
2021/12/15 05:08:12;;;;;;;9.43;8.43;;;9.10;99.30;;;;;;966952;145;27329;-71
2021/12/15 05:10:38;;;;;;;8.50;7.60;;;9.10;99.30;;;;;;975383;146;27303;-72
2021/12/15 05:13:05;;;;;;;10.03;8.30;;;9.10;99.30;;;;;;965996;148;28256;-71
2021/12/15 05:15:31;;;;;;;9.17;8.20;;;9.10;99.30;;;;;;969070;148;27356;-71
2021/12/15 05:17:58;;;;;;;9.53;8.07;;;9.10;99.30;;;;;;943682;150;27335;-72
2021/12/15 05:20:25;;;;;;;10.03;8.40;;;9.10;99.30;;;;;;953825;148;27359;-71
2021/12/15 05:22:51;;;;;;;9.47;8.23;;;9.10;99.30;;;;;;950376;148;27316;-71
2021/12/15 05:25:18;;;;;;;11.00;8.83;;;9.10;99.40;;;;;;969430;148;27375;-72
2021/12/15 05:27:44;;;;;;;13.77;10.03;;;9.10;99.40;;;;;;968807;146;27306;-71
2021/12/15 05:30:11;;;;;;;12.47;9.40;;;9.20;99.40;;;;;;980273;146;27349;-71
2021/12/15 05:32:37;;;;;;;8.93;7.53;;;9.20;99.40;;;;;;970222;146;27290;-70
2021/12/15 05:35:04;;;;;;;11.43;9.03;;;9.20;99.40;;;;;;970282;147;27803;-71
2021/12/15 05:37:31;;;;;;;9.50;8.00;;;9.20;99.40;;;;;;970233;146;27263;-71
2021/12/15 05:39:57;;;;;;;12.17;9.47;;;9.20;99.40;;;;;;963204;147;27385;-70
2021/12/15 05:42:24;;;;;;;9.47;8.43;;;9.20;99.40;;;;;;966213;147;27235;-71
2021/12/15 05:44:50;;;;;;;11.03;8.97;;;9.20;99.40;;;;;;970593;147;27300;-72
2021/12/15 05:47:17;;;;;;;10.17;8.77;;;9.20;99.40;;;;;;970984;147;27439;-71
2021/12/15 05:49:44;;;;;;;10.97;8.20;;;9.20;99.40;;;;;;962775;147;27370;-71
2021/12/15 05:52:10;;;;;;;11.67;9.20;;;9.20;99.30;;;;;;963192;147;27438;-71
2021/12/15 05:54:37;;;;;;;11.27;8.13;;;9.20;99.40;;;;;;967188;147;27351;-71
2021/12/15 05:57:03;;;;;;;10.27;8.40;;;9.20;99.30;;;;;;954302;149;27447;-71
2021/12/15 05:59:30;;;;;;;9.40;8.23;;;9.20;99.30;;;;;;955064;149;27304;-70
2021/12/15 06:01:56;;;;;;;10.80;8.10;;;9.20;99.30;;;;;;945562;149;27320;-71
2021/12/15 06:04:23;;;;;;;10.00;7.93;;;9.20;99.30;;;;;;947080;151;27249;-72
2021/12/15 06:06:50;;;;;;;9.47;8.03;;;9.30;99.30;;;;;;940554;152;27322;-72
2021/12/15 06:09:16;;;;;;;10.90;8.57;;;9.30;99.30;;;;;;963555;147;27250;-71
2021/12/15 06:11:43;;;;;;;10.43;8.07;;;9.30;99.40;;;;;;971292;147;27242;-71
2021/12/15 06:14:09;;;;;;;11.37;8.57;;;9.30;99.70;;;;;;968197;146;27743;-71
2021/12/15 06:16:36;;;;;;;11.60;8.73;;;9.30;99.30;;;;;;965804;147;27382;-71
2021/12/15 06:19:03;;;;;;;12.00;8.00;;;9.30;99.30;;;;;;965527;147;27258;-71
2021/12/15 06:21:31;;;;;;;10.73;9.53;;;9.30;99.30;;;;;;965055;147;27266;-74
2021/12/15 06:23:56;;;;;;;10.40;8.27;;;9.30;99.30;;;;;;967124;147;27278;-71
2021/12/15 06:26:22;;;;;;;11.00;8.83;;;9.30;99.30;;;;;;969955;147;27290;-71
2021/12/15 06:28:52;;;;;;;10.67;8.97;;;9.30;99.40;;;;;;970308;147;27294;-71
2021/12/15 06:31:18;;;;;;;8.83;7.93;;;9.30;99.30;;;;;;970943;146;27366;-72
2021/12/15 06:33:48;;;;;;;11.20;9.10;;;9.30;99.30;;;;;;977287;146;27770;-72
2021/12/15 06:36:20;;;;;;;11.30;9.23;;;9.30;99.40;;;;;;967076;145;27301;-71
2021/12/15 06:38:41;;;;;;;10.93;8.93;;;9.30;99.40;;;;;;975508;146;27279;-71
2021/12/15 06:41:07;;;;;;;10.53;8.43;;;9.30;99.70;;;;;;972074;146;27780;-71
2021/12/15 06:43:34;;;;;;;8.73;7.80;;;9.30;99.40;;;;;;974266;146;27320;-72
2021/12/15 06:59:26;;;;;;;8.50;7.20;;;9.40;99.40;;;;;;976264;146;27515;-72
2021/12/15 07:01:52;;;;;;;8.40;7.50;;;9.40;99.40;;;;;;974727;145;27849;-71
2021/12/15 07:04:19;;;;;;;10.67;8.37;;;9.40;99.50;;;;;;978314;146;27235;-71
2021/12/15 07:06:45;;;;;;;10.07;7.43;;;9.40;99.50;;;;;;972464;146;27289;-72
2021/12/15 07:09:12;;;;;;;10.40;8.13;;;9.40;99.50;;;;;;981832;146;27372;-72
2021/12/15 07:11:39;;;;;;;10.87;8.63;;;9.40;99.50;;;;;;978629;146;27323;-71
2021/12/15 07:14:05;;;;;;;9.33;7.80;;;9.50;99.50;;;;;;967368;146;27287;-72
2021/12/15 07:16:33;;;;;;;13.27;8.87;;;9.50;99.50;;;;;;974563;146;27415;-71
2021/12/15 07:19:16;;;;;;;10.63;8.17;;;9.50;99.40;;;;;;973977;146;27347;-71
2021/12/15 07:21:34;;;;;;;10.87;7.93;;;9.50;99.40;;;;;;977334;146;27299;-71
2021/12/15 07:23:54;;;;;;;10.10;8.43;;;9.50;99.40;;;;;;973704;146;27375;-72
2021/12/15 07:26:21;;;;;;;8.77;7.83;;;9.50;99.40;;;;;;982609;146;27283;-71
2021/12/15 07:28:47;;;;;;;10.37;8.00;;;9.60;99.40;;;;;;982203;146;27358;-71
2021/12/15 07:31:14;;;;;;;9.27;7.60;;;9.60;99.40;;;;;;980301;146;27268;-72
2021/12/15 07:33:40;;;;;;;8.50;7.00;;;9.60;99.40;;;;;;979311;146;27333;-74
2021/12/15 07:36:07;;;;;;;9.17;8.10;;;9.60;99.40;;;;;;978327;146;27418;-70
2021/12/15 07:38:35;;;;;;;10.40;8.10;;;9.70;99.70;;;;;;976011;146;27294;-71
2021/12/15 07:41:00;;;;;;;10.50;7.73;;;9.70;99.30;;;;;;976795;146;27708;-71
2021/12/15 07:43:27;;;;;;;8.80;7.53;;;9.70;99.30;;;;;;974784;146;27340;-71
2021/12/15 07:45:56;;;;;;;9.20;7.27;;;9.70;99.20;;;;;;979162;145;27751;-71
2021/12/15 07:48:23;;;;;;;9.33;7.83;;;9.70;99.20;;;;;;976122;146;27329;-72
2021/12/15 07:50:50;;;;;;;8.57;7.53;;;9.70;99.10;;;;;;977998;146;27411;-71
2021/12/15 07:53:16;;;;;;;9.23;7.63;;;9.70;99.20;;;;;;975689;146;27348;-71
2021/12/15 07:55:42;;;;;;;8.67;7.00;;;9.80;99.30;;;;;;977511;146;27361;-72
2021/12/15 07:58:09;;;;;;;7.83;6.90;;;9.80;99.30;;;;;;974907;145;27476;-72
2021/12/15 08:00:36;;;;;;;9.33;7.90;;;9.80;99.30;;;;;;976075;146;27308;-71
2021/12/15 08:03:02;;;;;;;8.87;7.77;;;9.90;99.30;;;;;;976040;146;27290;-72
2021/12/15 08:05:29;;;;;;;9.30;7.87;;;9.90;99.20;;;;;;977504;146;27286;-72
2021/12/15 08:07:55;;;;;;;12.00;8.63;;;9.90;99.20;;;;;;975461;146;27252;-71
2021/12/15 08:10:22;;;;;;;9.10;7.43;;;9.90;99.10;;;;;;977718;146;27322;-74
2021/12/15 08:12:48;;;;;;;8.97;7.67;;;10.00;99.10;;;;;;981969;146;27277;-71
2021/12/15 08:15:16;;;;;;;9.93;8.27;;;10.00;99.10;;;;;;980875;146;27266;-71
2021/12/15 08:17:42;;;;;;;8.70;7.37;;;10.00;99.00;;;;;;967801;148;27445;-71
2021/12/15 08:20:08;;;;;;;12.87;8.07;;;10.00;99.00;;;;;;977108;146;27272;-73
2021/12/15 08:22:35;;;;;;;9.87;8.53;;;10.10;99.00;;;;;;965026;149;27273;-71
2021/12/15 08:25:01;;;;;;;10.73;8.27;;;10.10;98.90;;;;;;966041;147;27379;-72
2021/12/15 08:27:28;;;;;;;11.87;9.00;;;10.10;98.90;;;;;;973322;146;27254;-71
2021/12/15 08:29:55;;;;;;;11.00;8.67;;;10.10;98.90;;;;;;973094;146;27234;-71
2021/12/15 08:32:21;;;;;;;10.20;8.90;;;10.20;99.00;;;;;;974486;146;27284;-71
2021/12/15 08:34:48;;;;;;;9.67;8.43;;;10.20;99.00;;;;;;969221;146;27370;-73
2021/12/15 08:37:15;;;;;;;9.53;7.87;;;10.20;99.00;;;;;;965226;147;27313;-71
2021/12/15 08:39:41;;;;;;;9.27;8.17;;;10.20;99.00;;;;;;970164;147;27262;-71
2021/12/15 08:42:08;;;;;;;10.40;7.73;;;10.30;99.00;;;;;;966409;146;27383;-71
2021/12/15 08:44:34;;;;;;;10.37;9.07;;;10.30;98.70;;;;;;968863;147;27271;-71
2021/12/15 08:47:04;;;;;;;9.93;8.00;;;10.30;99.00;;;;;;962790;147;27262;-70
2021/12/15 08:49:30;;;;;;;10.47;7.97;;;10.40;99.00;;;;;;968483;147;27387;-72
2021/12/15 08:51:57;;;;;;;10.87;7.93;;;10.40;99.00;;;;;;960739;147;27400;-71
2021/12/15 08:54:23;;;;;;;9.77;7.80;;;10.40;99.00;;;;;;966578;147;27853;-71
2021/12/15 08:56:53;;;;;;;10.30;8.40;;;10.50;99.10;;;;;;960904;147;27306;-72
2021/12/15 08:59:20;;;;;;;10.20;8.43;;;10.50;99.00;;;;;;958145;147;27788;-71
2021/12/15 09:01:46;;;;;;;10.93;9.23;;;10.60;99.00;;;;;;947749;148;27305;-71
2021/12/15 09:04:13;;;;;;;10.07;8.10;;;10.60;98.90;;;;;;941657;151;27759;-72
2021/12/15 09:06:39;;;;;;;9.07;8.00;;;10.60;98.80;;;;;;960944;149;27376;-72
2021/12/15 09:09:06;;;;;;;9.23;8.20;;;10.70;98.90;;;;;;944185;151;27275;-72
2021/12/15 09:11:33;;;;;;;9.00;8.07;;;10.70;98.90;;;;;;961215;148;27279;-71
2021/12/15 09:13:59;;;;;;;9.47;7.77;;;10.70;98.80;;;;;;937626;152;27303;-71
2021/12/15 09:16:26;;;;;;;8.90;7.97;;;10.80;98.70;;;;;;967269;146;27378;-71
2021/12/15 09:18:52;;;;;;;9.77;8.50;;;10.80;98.60;;;;;;953222;149;27253;-71
2021/12/15 09:21:19;;;;;;;9.23;7.77;;;10.80;98.50;;;;;;951728;149;27237;-73
2021/12/15 09:23:45;;;;;;;11.20;8.90;;;10.80;98.40;;;;;;961446;148;27284;-71
2021/12/15 09:26:12;;;;;;;8.87;7.97;;;10.90;98.40;;;;;;976016;147;27278;-71
2021/12/15 09:28:39;;;;;;;9.43;7.17;;;10.90;98.40;;;;;;973163;147;27289;-71
2021/12/15 09:31:05;;;;;;;7.67;6.97;;;10.90;98.40;;;;;;968919;146;27620;-72
2021/12/15 09:33:41;;;;;;;9.10;7.13;;;10.90;98.30;;;;;;965858;146;27242;-72
2021/12/15 09:36:07;;;;;;;9.37;8.00;;;10.90;98.30;;;;;;974540;146;27335;-71
2021/12/15 09:38:34;;;;;;;9.10;8.07;;;11.00;98.30;;;;;;978385;145;27251;-72
2021/12/15 09:41:00;;;;;;;7.37;6.60;;;11.00;98.30;;;;;;988527;145;27395;-71
2021/12/15 09:43:28;;;;;;;7.43;6.73;;;11.00;98.20;;;;;;967116;147;27293;-71
2021/12/15 09:46:04;;;;;;;9.30;7.30;;;11.10;98.10;;;;;;971235;147;27238;-71
2021/12/15 10:18:09;;;;;;;8.47;7.57;;;11.20;97.40;;;;;;981738;145;27320;-71
2021/12/15 10:20:32;;;;;;;8.27;7.37;;;11.30;97.80;;;;;;974825;145;27332;-71
2021/12/15 10:23:01;;;;;;;8.77;7.53;;;11.30;97.90;;;;;;986989;145;27257;-71
2021/12/15 10:25:26;;;;;;;8.07;6.90;;;11.40;97.90;;;;;;980650;145;27340;-71
2021/12/15 10:27:53;;;;;;;8.50;7.60;;;11.40;97.90;;;;;;971789;146;27331;-71
2021/12/15 10:30:21;;;;;;;9.07;7.00;;;11.40;97.90;;;;;;978102;145;27392;-72
2021/12/15 10:32:46;;;;;;;7.77;6.97;;;11.50;97.70;;;;;;976862;145;27380;-71
2021/12/15 10:35:13;;;;;;;8.40;6.93;;;11.50;97.70;;;;;;962157;147;27332;-71
2021/12/15 10:37:39;;;;;;;8.33;7.40;;;11.60;97.70;;;;;;963633;148;28087;-72
2021/12/15 10:40:12;;;;;;;8.87;7.97;;;11.60;97.80;;;;;;971539;147;27589;-71
2021/12/15 10:42:38;;;;;;;10.63;8.30;;;11.60;97.80;;;;;;949811;149;27338;-70
2021/12/15 10:45:05;;;;;;;9.40;7.50;;;11.70;97.80;;;;;;954727;149;27288;-71
2021/12/15 10:47:31;;;;;;;8.60;7.70;;;11.80;97.70;;;;;;964353;147;27671;-70
2021/12/15 10:49:58;;;;;;;7.53;6.80;;;11.80;97.70;;;;;;959693;149;27292;-71
2021/12/15 10:52:25;;;;;;;8.73;7.40;;;11.90;97.70;;;;;;940006;152;27318;-72
2021/12/15 10:54:56;;;;;;;8.03;7.23;;;11.90;97.60;;;;;;965393;146;27295;-71
2021/12/15 10:57:21;;;;;;;8.23;7.13;;;12.00;97.60;;;;;;965368;146;27325;-73
2021/12/15 10:59:48;;;;;;;7.97;7.23;;;12.10;97.50;;;;;;961343;147;27301;-71
2021/12/15 11:02:16;;;;;;;8.53;7.60;;;12.10;97.30;;;;;;953644;149;27280;-72
2021/12/15 11:04:41;;;;;;;7.27;6.57;;;12.20;97.10;;;;;;944028;151;27780;-72
2021/12/15 11:07:25;;;;;;;8.13;7.33;;;12.30;97.00;;;;;;956431;149;27371;-71
2021/12/15 11:09:52;;;;;;;7.60;6.70;;;12.30;97.00;;;;;;961773;147;27306;-71
2021/12/15 11:12:18;;;;;;;7.40;6.70;;;12.40;96.90;;;;;;963460;147;27364;-72
2021/12/15 11:14:45;;;;;;;8.07;6.63;;;12.40;96.80;;;;;;963504;147;27270;-70
2021/12/15 11:17:23;;;;;;;7.50;6.40;;;12.40;96.70;;;;;;972634;147;27355;-71
2021/12/15 11:19:50;;;;;;;7.33;6.63;;;12.50;96.50;;;;;;968060;147;27374;-71
2021/12/15 11:22:44;;;;;;;7.87;7.17;;;12.60;96.40;;;;;;972565;147;27293;-71
2021/12/15 11:25:19;;;;;;;7.40;6.70;;;12.60;96.20;;;;;;959285;147;27850;-71
2021/12/15 11:27:52;;;;;;;6.77;6.07;;;12.60;96.10;;;;;;963507;147;27345;-71
2021/12/15 11:30:24;;;;;;;7.20;6.50;;;12.70;96.10;;;;;;970664;147;27272;-71
2021/12/15 11:32:51;;;;;;;6.80;6.17;;;12.70;96.10;;;;;;966301;146;27354;-71
2021/12/15 11:35:20;;;;;;;7.43;6.73;;;12.70;96.10;;;;;;971935;147;27338;-71
2021/12/15 11:38:05;;;;;;;6.67;6.03;;;12.80;96.10;;;;;;963798;147;27264;-70
2021/12/15 11:40:34;;;;;;;7.13;6.10;;;12.90;96.00;;;;;;968617;147;27374;-72
2021/12/15 11:43:01;;;;;;;6.50;5.90;;;12.90;95.70;;;;;;953612;149;27338;-71
2021/12/15 11:45:27;;;;;;;7.27;6.57;;;13.00;95.50;;;;;;928129;154;28037;-71
2021/12/15 11:48:15;;;;;;;7.23;6.53;;;13.00;95.30;;;;;;937936;151;27305;-71
2021/12/15 11:50:42;;;;;;;6.63;5.93;;;13.00;95.10;;;;;;942782;150;27683;-71
2021/12/15 11:53:08;;;;;;;7.60;6.90;;;13.10;95.00;;;;;;938875;151;27348;-71
2021/12/15 11:55:35;;;;;;;6.97;6.27;;;13.10;94.90;;;;;;944900;149;27339;-71
2021/12/15 11:58:03;;;;;;;6.90;6.30;;;13.10;94.70;;;;;;959570;147;27258;-71
2021/12/15 12:00:28;;;;;;;7.90;7.10;;;13.10;94.70;;;;;;962610;147;27312;-71
2021/12/15 12:02:55;;;;;;;8.00;7.20;;;13.10;94.60;;;;;;958421;147;27321;-72
2021/12/15 12:05:24;;;;;;;8.60;7.20;;;13.10;94.50;;;;;;949529;146;27276;-71
2021/12/15 12:07:55;;;;;;;7.43;6.63;;;13.10;94.40;;;;;;952855;146;27417;-70
2021/12/15 12:10:25;;;;;;;9.73;7.50;;;13.10;94.40;;;;;;943794;152;27314;-71
2021/12/15 12:12:54;;;;;;;7.20;6.50;;;13.10;94.40;;;;;;943461;152;27319;-71
2021/12/15 12:15:16;;;;;;;7.40;6.70;;;13.10;94.40;;;;;;959748;149;27260;-71
2021/12/15 12:17:42;;;;;;;8.17;7.37;;;13.20;94.50;;;;;;944700;151;27349;-72
2021/12/15 12:20:21;;;;;;;7.63;6.87;;;13.20;94.40;;;;;;942989;148;27386;-71
2021/12/15 12:22:48;;;;;;;7.33;6.63;;;13.20;94.70;;;;;;952956;146;27400;-71
2021/12/15 12:25:17;;;;;;;7.50;6.83;;;13.20;94.40;;;;;;946245;149;27336;-70
2021/12/15 12:27:44;;;;;;;7.63;6.93;;;13.20;94.40;;;;;;949423;149;27232;-70
2021/12/15 12:30:23;;;;;;;7.80;7.10;;;13.30;94.30;;;;;;957952;149;27293;-71
2021/12/15 12:32:49;;;;;;;6.60;6.00;;;13.30;94.40;;;;;;952854;149;27388;-72
2021/12/15 12:35:18;;;;;;;8.80;7.07;;;13.30;94.20;;;;;;959337;149;27331;-71
2021/12/15 12:37:45;;;;;;;6.63;6.03;;;13.30;94.30;;;;;;951503;149;27350;-70
2021/12/15 12:40:20;;;;;;;6.47;5.70;;;13.40;94.30;;;;;;945111;149;27394;-71
2021/12/15 12:42:46;;;;;;;6.80;6.10;;;13.40;94.30;;;;;;941398;152;27301;-71
2021/12/15 12:45:19;;;;;;;7.15;6.50;;;13.40;94.20;;;;;;936633;152;27302;-71
2021/12/15 12:48:02;;;;;;;6.80;6.20;;;13.50;94.00;;;;;;943692;152;27399;-70
2021/12/15 12:50:40;;;;;;;6.23;5.50;;;13.50;93.90;;;;;;943075;151;27322;-71
2021/12/15 13:01:10;;;;;;;7.08;6.37;;;13.50;93.20;;;;;;952506;149;27340;-72
2021/12/15 13:03:37;;;;;;;7.37;6.50;;;13.50;93.10;;;;;;942006;151;27458;-71
2021/12/15 13:06:08;;;;;;;6.40;5.80;;;13.40;93.00;;;;;;954990;149;27311;-71
2021/12/15 13:08:38;;;;;;;6.97;6.27;;;13.40;92.90;;;;;;933087;152;27396;-71
2021/12/15 13:11:17;;;;;;;6.40;5.80;;;13.40;92.90;;;;;;967203;147;27269;-71
2021/12/15 13:14:04;;;;;;;8.03;6.67;;;13.40;92.90;;;;;;974135;146;27290;-71
2021/12/15 13:16:33;;;;;;;7.50;6.80;;;13.40;92.90;;;;;;964177;146;27298;-71
2021/12/15 13:18:59;;;;;;;7.60;6.90;;;13.30;92.90;;;;;;964962;147;27359;-71
2021/12/15 13:22:19;;;;;;;7.37;6.67;;;13.30;92.90;;;;;;965456;146;27774;-71
2021/12/15 13:30:52;;;;;;;6.40;5.70;;;13.30;93.10;;;;;;958527;150;27326;-73
2021/12/15 13:33:27;;;;;;;7.30;6.60;;;13.20;93.10;;;;;;965691;147;27282;-71
2021/12/15 13:36:13;;;;;;;8.33;6.70;;;13.20;93.10;;;;;;963556;146;27355;-71
2021/12/15 13:38:45;;;;;;;6.83;6.23;;;13.20;93.10;;;;;;971609;146;27345;-71
2021/12/15 13:41:36;;;;;;;8.17;6.67;;;13.20;93.00;;;;;;980441;146;27254;-70
2021/12/15 13:44:17;;;;;;;6.57;5.87;;;13.20;92.90;;;;;;973976;145;27334;-70
2021/12/15 13:46:50;;;;;;;7.20;6.50;;;13.10;92.90;;;;;;982013;146;27366;-70
2021/12/15 13:49:23;;;;;;;7.10;6.40;;;13.10;93.00;;;;;;978002;146;27327;-71
2021/12/15 13:52:11;;;;;;;7.33;6.63;;;13.10;93.10;;;;;;973329;146;27308;-70
2021/12/15 13:54:37;;;;;;;8.27;6.93;;;13.10;93.10;;;;;;976782;146;27799;-70
2021/12/15 13:57:13;;;;;;;6.80;6.13;;;13.10;93.10;;;;;;969927;146;27437;-70
2021/12/15 13:59:39;;;;;;;9.80;6.77;;;13.10;93.00;;;;;;976226;146;27366;-71
2021/12/15 14:02:21;;;;;;;7.43;6.30;;;13.10;93.00;;;;;;962009;148;27358;-71
2021/12/15 14:04:59;;;;;;;7.50;6.70;;;13.10;93.10;;;;;;970120;148;27763;-70
2021/12/15 14:07:28;;;;;;;7.73;6.57;;;13.00;93.10;;;;;;954767;148;27394;-70
2021/12/15 14:09:55;;;;;;;7.77;6.93;;;13.10;93.10;;;;;;979919;146;27319;-70
2021/12/15 14:12:47;;;;;;;8.03;7.23;;;13.10;92.90;;;;;;969437;146;27259;-70
2021/12/15 14:15:25;;;;;;;7.53;6.80;;;13.00;92.90;;;;;;974027;146;27382;-70
2021/12/15 14:18:25;;;;;;;10.43;6.60;;;13.00;92.80;;;;;;973368;146;27292;-70
2021/12/15 14:21:04;;;;;;;7.77;6.87;;;13.00;92.90;;;;;;974131;146;27241;-71
2021/12/15 14:23:34;;;;;;;8.03;7.00;;;12.90;92.90;;;;;;981244;146;27325;-71